< < Back
Terminal Aerodrome Forecast


Current Version              Previous Versions:   1  2  3  4  5  6  7  8  9  

Terminal Aerodrome Forecast

076
FTUS42 KGSP 241455 AAA
TAFCLT
TAF AMD
KCLT 241455Z 2415/2512 04003KT P6SM BKN160
     FM242000 23003KT P6SM SCT170
     FM250400 34003KT P6SM SKC=



Latest METAR

117
SAUS70 KWBC 250300 RRB
MTRCLT
METAR KCLT 250252Z 00000KT 10SM CLR 09/07 A3003 RMK AO2 SLP167 T00890067
51010


USA.gov is the U.S. government's official web portal to all federal, state and local government web resources and services.